Time;durP1;ratioP1;P1;durP2;ratioP2;P2;SDS_P1;SDS_P2;PMS_P1;PMS_P2;Temp;Humidity;BMP_temperature;BMP_pressure;BME280_temperature;BME280_humidity;BME280_pressure;Samples;Min_cycle;Max_cycle;Signal;HPM_P1;HPM_P2
2022/04/21 00:02:13;;;;;;;1.53;1.43;;;;;;;;;;5088254;28;20469;-73
2022/04/21 00:04:42;;;;;;;2.07;1.63;;;;;;;;;;5089506;28;20943;-73
2022/04/21 00:07:09;;;;;;;2.13;1.40;;;;;;;;;;5089091;28;20920;-72
2022/04/21 00:09:36;;;;;;;2.23;2.03;;;;;;;;;;5089876;28;20451;-72
2022/04/21 00:12:03;;;;;;;2.60;1.90;;;;;;;;;;5082778;28;20449;-72
2022/04/21 00:14:32;;;;;;;3.23;1.80;;;;;;;;;;5090251;28;20499;-71
2022/04/21 00:16:59;;;;;;;1.83;1.40;;;;;;;;;;5087267;28;20792;-72
2022/04/21 00:19:26;;;;;;;1.57;1.33;;;;;;;;;;5090618;28;20898;-71
2022/04/21 00:24:39;;;;;;;1.30;1.20;;;;;;;;;;5089537;28;20432;-71
2022/04/21 00:27:07;;;;;;;3.67;1.70;;;;;;;;;;5078750;28;20948;-71
2022/04/21 00:29:35;;;;;;;2.07;1.90;;;;;;;;;;5076021;28;20474;-72
2022/04/21 00:32:02;;;;;;;2.30;1.97;;;;;;;;;;5089946;28;20445;-71
2022/04/21 00:34:29;;;;;;;1.93;1.73;;;;;;;;;;5077937;28;20442;-71
2022/04/21 00:36:57;;;;;;;1.83;1.30;;;;;;;;;;5090814;28;20529;-71
2022/04/21 00:39:25;;;;;;;2.10;1.70;;;;;;;;;;5088171;28;20482;-71
2022/04/21 00:41:56;;;;;;;1.73;1.40;;;;;;;;;;5079472;28;20526;-71
2022/04/21 00:44:23;;;;;;;1.33;1.23;;;;;;;;;;5077353;28;20440;-71
2022/04/21 00:46:51;;;;;;;2.30;1.90;;;;;;;;;;5085060;28;20437;-71
2022/04/21 00:49:19;;;;;;;1.23;1.00;;;;;;;;;;5090823;28;20467;-71
2022/04/21 00:51:46;;;;;;;1.53;1.40;;;;;;;;;;5088578;28;20445;-71
2022/04/21 00:54:15;;;;;;;2.50;1.80;;;;;;;;;;5090635;28;20429;-71
2022/04/21 00:56:43;;;;;;;1.87;1.77;;;;;;;;;;5088983;28;20447;-70
2022/04/21 00:59:11;;;;;;;1.83;1.60;;;;;;;;;;5089602;28;20507;-71
2022/04/21 01:04:24;;;;;;;3.03;2.77;;;;;;;;;;5083163;28;20409;-71
2022/04/21 01:06:52;;;;;;;1.40;1.30;;;;;;;;;;5084275;28;20450;-71
2022/04/21 01:09:21;;;;;;;1.73;1.63;;;;;;;;;;5089609;28;20448;-71
2022/04/21 01:11:49;;;;;;;2.00;1.77;;;;;;;;;;5088669;28;21258;-70
2022/04/21 01:14:16;;;;;;;1.60;1.50;;;;;;;;;;5090132;28;20446;-71
2022/04/21 01:16:45;;;;;;;0.80;0.80;;;;;;;;;;5087417;28;20440;-71
2022/04/21 01:19:12;;;;;;;1.67;1.57;;;;;;;;;;5087759;28;20473;-72
2022/04/21 01:21:42;;;;;;;1.67;1.20;;;;;;;;;;5088798;28;20453;-70
2022/04/21 01:24:09;;;;;;;1.57;1.47;;;;;;;;;;5090399;28;20445;-71
2022/04/21 01:26:37;;;;;;;2.07;1.60;;;;;;;;;;5081041;28;20952;-71
2022/04/21 01:29:04;;;;;;;2.00;1.30;;;;;;;;;;5090829;28;20449;-71
2022/04/21 01:31:32;;;;;;;1.83;1.23;;;;;;;;;;5074255;28;20520;-71
2022/04/21 01:33:59;;;;;;;2.07;1.70;;;;;;;;;;5080428;28;20445;-71
2022/04/21 01:36:27;;;;;;;2.20;1.47;;;;;;;;;;5090545;28;20442;-71
2022/04/21 01:41:48;;;;;;;1.30;1.20;;;;;;;;;;5043444;28;20625;-71
2022/04/21 01:44:15;;;;;;;2.40;1.70;;;;;;;;;;5090379;28;20444;-71
2022/04/21 01:46:42;;;;;;;1.70;1.60;;;;;;;;;;5081823;28;20448;-71
2022/04/21 01:49:10;;;;;;;3.20;2.37;;;;;;;;;;5089184;28;20473;-71
2022/04/21 01:51:37;;;;;;;3.30;1.80;;;;;;;;;;5092541;28;20441;-71
2022/04/21 01:54:05;;;;;;;1.70;1.30;;;;;;;;;;5093532;28;20476;-71
2022/04/21 01:56:33;;;;;;;2.17;1.53;;;;;;;;;;5092844;28;20438;-72
2022/04/21 01:59:00;;;;;;;3.93;2.43;;;;;;;;;;5093034;28;20486;-71
2022/04/21 02:01:27;;;;;;;1.53;1.43;;;;;;;;;;5091892;28;20474;-70
2022/04/21 02:03:54;;;;;;;1.70;1.60;;;;;;;;;;5092188;28;20846;-72
2022/04/21 02:06:21;;;;;;;1.53;1.43;;;;;;;;;;5093450;28;20789;-72
2022/04/21 02:08:49;;;;;;;1.70;1.60;;;;;;;;;;5088496;28;20446;-72
2022/04/21 02:11:17;;;;;;;2.60;1.87;;;;;;;;;;5081460;28;20458;-72
2022/04/21 02:13:44;;;;;;;1.60;1.50;;;;;;;;;;5076206;28;20528;-72
2022/04/21 02:16:12;;;;;;;1.63;1.53;;;;;;;;;;5081461;28;20929;-72
2022/04/21 02:18:39;;;;;;;2.60;1.97;;;;;;;;;;5085218;28;20798;-71
2022/04/21 02:21:06;;;;;;;1.70;1.47;;;;;;;;;;5087326;28;20447;-71
2022/04/21 02:23:33;;;;;;;1.27;1.17;;;;;;;;;;5092557;28;20773;-70
2022/04/21 02:26:00;;;;;;;1.30;1.20;;;;;;;;;;5093369;28;20540;-70
2022/04/21 02:28:29;;;;;;;2.23;1.70;;;;;;;;;;5092138;28;20461;-72
2022/04/21 02:30:56;;;;;;;2.83;1.37;;;;;;;;;;5082013;28;20486;-72
2022/04/21 02:33:23;;;;;;;1.60;1.43;;;;;;;;;;5090352;28;20529;-72
2022/04/21 02:35:50;;;;;;;3.13;2.03;;;;;;;;;;5092589;28;20796;-72
2022/04/21 02:38:17;;;;;;;3.70;2.03;;;;;;;;;;5083664;28;20442;-72
2022/04/21 02:40:45;;;;;;;2.47;2.13;;;;;;;;;;5088483;28;20520;-72
2022/04/21 02:43:12;;;;;;;1.40;1.03;;;;;;;;;;5078700;28;20445;-72
2022/04/21 02:45:42;;;;;;;1.80;1.70;;;;;;;;;;5091867;28;20433;-71
2022/04/21 02:48:09;;;;;;;2.07;1.87;;;;;;;;;;5091746;28;20452;-71
2022/04/21 02:50:37;;;;;;;2.50;2.30;;;;;;;;;;5091411;28;20773;-71
2022/04/21 02:53:04;;;;;;;2.50;2.30;;;;;;;;;;5092361;28;20449;-71
2022/04/21 02:58:14;;;;;;;2.80;2.07;;;;;;;;;;5046250;28;20635;-71
2022/04/21 03:00:43;;;;;;;2.10;1.50;;;;;;;;;;5080588;28;20442;-71
2022/04/21 03:03:10;;;;;;;3.00;1.60;;;;;;;;;;5092407;28;20445;-71
2022/04/21 03:05:37;;;;;;;4.23;2.30;;;;;;;;;;5087123;28;20528;-71
2022/04/21 03:08:04;;;;;;;1.40;1.30;;;;;;;;;;5084504;28;20851;-71
2022/04/21 03:10:32;;;;;;;2.20;2.00;;;;;;;;;;5086902;28;20536;-71
2022/04/21 03:12:59;;;;;;;1.97;1.87;;;;;;;;;;5082630;28;20905;-71
2022/04/21 03:15:26;;;;;;;1.77;1.63;;;;;;;;;;5087491;28;20452;-71
2022/04/21 03:17:55;;;;;;;3.33;2.13;;;;;;;;;;5082822;28;20473;-71
2022/04/21 03:25:52;;;;;;;2.70;2.47;;;;;;;;;;5092735;28;20444;-71
2022/04/21 03:28:19;;;;;;;1.83;1.63;;;;;;;;;;5088306;28;20485;-71
2022/04/21 03:30:46;;;;;;;2.07;1.90;;;;;;;;;;5078262;28;20708;-71
2022/04/21 03:33:14;;;;;;;2.20;1.97;;;;;;;;;;5075361;28;20442;-71
2022/04/21 03:35:42;;;;;;;2.30;2.10;;;;;;;;;;5079278;28;20433;-71
2022/04/21 03:38:09;;;;;;;2.40;2.23;;;;;;;;;;5075932;28;20450;-71
2022/04/21 03:40:36;;;;;;;2.27;1.70;;;;;;;;;;5072502;28;20470;-71
2022/04/21 03:43:03;;;;;;;3.17;2.87;;;;;;;;;;5087404;28;20477;-71
2022/04/21 03:45:30;;;;;;;3.97;2.60;;;;;;;;;;5083292;28;20536;-70
2022/04/21 03:47:59;;;;;;;3.80;2.57;;;;;;;;;;5075008;28;20529;-70
2022/04/21 03:50:29;;;;;;;2.73;2.10;;;;;;;;;;5092041;28;20475;-70
2022/04/21 03:52:56;;;;;;;1.63;1.53;;;;;;;;;;5083363;28;20446;-70
2022/04/21 03:55:23;;;;;;;2.53;2.13;;;;;;;;;;5088919;28;20445;-70
2022/04/21 03:57:50;;;;;;;2.33;2.13;;;;;;;;;;5074076;28;20592;-69
2022/04/21 04:00:18;;;;;;;2.57;1.90;;;;;;;;;;5091132;28;20547;-70
2022/04/21 04:02:45;;;;;;;3.53;2.63;;;;;;;;;;5078255;28;20821;-70
2022/04/21 04:05:12;;;;;;;4.03;2.17;;;;;;;;;;5090417;28;20859;-70
2022/04/21 04:13:09;;;;;;;3.23;2.70;;;;;;;;;;5083456;28;20416;-71
2022/04/21 04:15:37;;;;;;;1.60;1.50;;;;;;;;;;5085136;28;20438;-71
2022/04/21 04:18:04;;;;;;;2.50;2.30;;;;;;;;;;5087759;28;20472;-70
2022/04/21 04:20:31;;;;;;;2.57;2.37;;;;;;;;;;5089825;28;20480;-70
2022/04/21 04:23:00;;;;;;;3.30;2.57;;;;;;;;;;5077408;28;20440;-70
2022/04/21 04:25:27;;;;;;;5.47;2.97;;;;;;;;;;5077285;28;20845;-70
2022/04/21 04:27:54;;;;;;;1.83;1.70;;;;;;;;;;5084843;28;20450;-70
2022/04/21 04:30:21;;;;;;;2.60;2.30;;;;;;;;;;5083587;28;20989;-69
2022/04/21 04:32:48;;;;;;;1.90;1.80;;;;;;;;;;5086398;28;21334;-69
2022/04/21 04:35:15;;;;;;;2.40;2.00;;;;;;;;;;5078346;28;20472;-72
2022/04/21 04:37:43;;;;;;;3.20;2.23;;;;;;;;;;5090052;28;20486;-72
2022/04/21 04:40:12;;;;;;;3.00;2.70;;;;;;;;;;5091198;28;20476;-72
2022/04/21 04:42:39;;;;;;;2.50;2.30;;;;;;;;;;5089551;28;20441;-70
2022/04/21 04:47:51;;;;;;;3.20;2.90;;;;;;;;;;5075136;28;20513;-69
2022/04/21 04:50:18;;;;;;;4.83;3.00;;;;;;;;;;5091268;28;20449;-70
2022/04/21 04:52:47;;;;;;;1.97;1.87;;;;;;;;;;5090664;28;20929;-70
2022/04/21 04:55:15;;;;;;;2.07;1.87;;;;;;;;;;5093845;28;20433;-71
2022/04/21 04:57:43;;;;;;;3.97;2.10;;;;;;;;;;5092782;28;20934;-69
2022/04/21 05:00:10;;;;;;;1.27;1.20;;;;;;;;;;5093712;28;20572;-69
2022/04/21 05:02:38;;;;;;;2.97;2.60;;;;;;;;;;5093155;28;20483;-69
2022/04/21 05:05:05;;;;;;;2.87;2.43;;;;;;;;;;5094740;28;20524;-72
2022/04/21 05:07:32;;;;;;;2.77;2.57;;;;;;;;;;5093035;28;20921;-71
2022/04/21 05:10:00;;;;;;;3.53;2.60;;;;;;;;;;5090887;28;20449;-71
2022/04/21 05:12:29;;;;;;;3.33;3.03;;;;;;;;;;5091230;28;20441;-71
2022/04/21 05:14:56;;;;;;;5.63;3.00;;;;;;;;;;5090956;28;20453;-70
2022/04/21 05:17:23;;;;;;;2.60;2.40;;;;;;;;;;5090475;28;20441;-71
2022/04/21 05:19:52;;;;;;;3.03;2.73;;;;;;;;;;5088944;28;20487;-71
2022/04/21 05:22:19;;;;;;;3.37;2.37;;;;;;;;;;5093304;28;20448;-71
2022/04/21 05:24:47;;;;;;;5.13;2.70;;;;;;;;;;5093852;28;20468;-70
2022/04/21 05:27:14;;;;;;;4.90;3.10;;;;;;;;;;5094650;28;20448;-70
2022/04/21 05:32:30;;;;;;;4.00;3.73;;;;;;;;;;5093948;28;20439;-70
2022/04/21 05:34:58;;;;;;;5.40;3.00;;;;;;;;;;5094469;28;20447;-71
2022/04/21 05:37:25;;;;;;;9.30;3.70;;;;;;;;;;5094701;28;20449;-70
2022/04/21 05:39:53;;;;;;;4.03;2.63;;;;;;;;;;5093390;28;20477;-71
2022/04/21 05:42:23;;;;;;;4.13;2.80;;;;;;;;;;5094117;28;20622;-71
2022/04/21 05:44:53;;;;;;;6.00;4.90;;;;;;;;;;5094231;28;20439;-70
2022/04/21 05:47:20;;;;;;;4.10;3.30;;;;;;;;;;5094628;28;20445;-71
2022/04/21 05:49:47;;;;;;;4.53;3.07;;;;;;;;;;5093555;28;20436;-70
2022/04/21 05:52:15;;;;;;;3.53;2.43;;;;;;;;;;5094527;28;20539;-71
2022/04/21 05:54:42;;;;;;;3.40;2.90;;;13.70;1.00;;;;;;5093209;28;20839;-71
2022/04/21 05:57:10;;;;;;;3.90;2.50;;;8.10;99.90;;;;;;5093701;28;20552;-71
2022/04/21 05:59:37;;;;;;;4.37;3.87;;;8.10;1.00;;;;;;5092184;28;21022;-70
2022/04/21 06:02:07;;;;;;;4.33;3.20;;;8.30;99.90;;;;;;5093897;28;20456;-70
2022/04/21 06:04:34;;;;;;;4.20;3.80;;;8.40;99.90;;;;;;5093157;28;20474;-71
2022/04/21 06:07:00;;;;;;;3.70;2.93;;;8.60;99.90;;;;;;5093518;28;20452;-71
2022/04/21 06:09:27;;;;;;;4.07;3.63;;;8.60;99.90;;;;;;5093221;28;20796;-71
2022/04/21 06:11:54;;;;;;;3.63;3.30;;;8.70;94.60;;;;;;5093585;28;20527;-72
2022/04/21 06:14:21;;;;;;;6.17;4.03;;;8.80;83.80;;;;;;5093630;28;20446;-71
2022/04/21 06:16:48;;;;;;;4.07;3.73;;;8.90;24.50;;;;;;5092533;28;20448;-71
2022/04/21 06:19:16;;;;;;;5.93;4.57;;;9.00;1.00;;;;;;5093022;28;20447;-70
2022/04/21 06:21:43;;;;;;;5.07;4.57;;;9.10;1.00;;;;;;5092499;28;20480;-70
2022/04/21 06:24:10;;;;;;;6.90;4.60;;;9.10;1.00;;;;;;5093541;28;21020;-70
2022/04/21 06:26:38;;;;;;;3.37;3.07;;;9.30;1.00;;;;;;5093244;28;20444;-71
2022/04/21 06:29:05;;;;;;;6.90;4.47;;;9.30;1.00;;;;;;5092924;28;20999;-70
2022/04/21 06:31:32;;;;;;;4.30;3.90;;;9.40;1.00;;;;;;5093170;28;20638;-71
2022/04/21 06:33:59;;;;;;;4.70;3.87;;;9.60;1.00;;;;;;5092441;28;20447;-71
2022/04/21 06:36:27;;;;;;;4.03;3.73;;;9.70;1.00;;;;;;5093262;28;20478;-70
2022/04/21 06:38:54;;;;;;;6.13;4.17;;;9.70;1.00;;;;;;5093389;28;20454;-71
2022/04/21 06:41:21;;;;;;;5.07;4.40;;;9.50;1.00;;;;;;5093425;28;20487;-70
2022/04/21 06:49:25;;;;;;;4.37;3.50;;;;;;;;;;5056361;28;20428;-71
2022/04/21 06:51:54;;;;;;;4.70;4.30;;;;;;;;;;5092896;28;20443;-70
2022/04/21 06:54:21;;;;;;;4.23;3.63;;;;;;;;;;5092754;28;20761;-70
2022/04/21 06:56:49;;;;;;;4.97;3.97;;;;;;;;;;5091728;28;20967;-71
2022/04/21 06:59:16;;;;;;;7.60;4.30;;;;;;;;;;5092130;28;20469;-71
2022/04/21 07:01:46;;;;;;;6.00;5.20;;;;;;;;;;5091829;28;20478;-71
2022/04/21 07:04:13;;;;;;;5.20;4.20;;;;;;;;;;5092781;28;20454;-71
2022/04/21 07:06:41;;;;;;;4.27;3.80;;;;;;;;;;5091880;28;20442;-70
2022/04/21 07:09:09;;;;;;;6.00;4.93;;;;;;;;;;5092199;28;20524;-71
2022/04/21 07:11:38;;;;;;;7.03;4.00;;;;;;;;;;5091379;28;20536;-71
2022/04/21 07:14:05;;;;;;;5.57;5.07;;;;;;;;;;5079363;28;20486;-71
2022/04/21 07:16:32;;;;;;;5.00;4.50;;;;;;;;;;5091537;28;20446;-71
2022/04/21 07:18:59;;;;;;;5.17;4.17;;;;;;;;;;5092005;28;20849;-72
2022/04/21 07:21:26;;;;;;;4.10;3.43;;;;;;;;;;5091910;28;20527;-71
2022/04/21 07:23:54;;;;;;;5.30;4.77;;;;;;;;;;5092115;28;20446;-71
2022/04/21 07:26:22;;;;;;;6.27;4.07;;;;;;;;;;5092437;28;20455;-71
2022/04/21 07:28:49;;;;;;;4.30;3.90;;;;;;;;;;5091442;28;20446;-71
2022/04/21 07:31:17;;;;;;;5.97;4.47;;;;;;;;;;5092265;28;20539;-72
2022/04/21 07:33:44;;;;;;;7.23;4.30;;;;;;;;;;5091479;28;20499;-71
2022/04/21 07:36:11;;;;;;;6.87;4.60;;;;;;;;;;5091924;28;20539;-71
2022/04/21 07:38:38;;;;;;;4.03;3.60;;;;;;;;;;5090950;28;20477;-71
2022/04/21 07:41:05;;;;;;;4.30;3.73;;;;;;;;;;5092199;28;20497;-71
2022/04/21 07:43:35;;;;;;;3.90;3.50;;;;;;;;;;5091049;28;20838;-71
2022/04/21 07:46:03;;;;;;;5.23;4.73;;;;;;;;;;5092426;28;20784;-71
2022/04/21 07:49:44;;;;;;;11.60;4.70;;;;;;;;;;5090814;28;20442;-70
2022/04/21 07:51:17;;;;;;;5.47;4.17;;;;;;;;;;5091476;28;20439;-70
2022/04/21 07:53:45;;;;;;;5.73;4.00;;;;;;;;;;5091060;28;20437;-72
2022/04/21 07:56:12;;;;;;;6.47;4.37;;;;;;;;;;5071461;28;20455;-71
2022/04/21 07:58:40;;;;;;;5.47;4.60;;;;;;;;;;5083246;28;21093;-72
2022/04/21 08:01:07;;;;;;;4.20;3.60;;;;;;;;;;5091425;28;20517;-71
2022/04/21 08:03:37;;;;;;;5.60;4.53;;;;;;;;;;5090746;28;20530;-70
2022/04/21 08:06:04;;;;;;;5.87;4.03;;;;;;;;;;5091460;28;20550;-71
2022/04/21 08:08:32;;;;;;;7.70;5.13;;;;;;;;;;5089867;28;20494;-70
2022/04/21 08:10:59;;;;;;;7.27;3.83;;;;;;;;;;5091015;28;20459;-71
2022/04/21 08:13:29;;;;;;;4.30;3.60;;;;;;;;;;5091099;28;20455;-71
2022/04/21 08:15:57;;;;;;;5.67;5.07;;;;;;;;;;5091256;28;20509;-70
2022/04/21 08:18:24;;;;;;;5.40;3.70;;;;;;;;;;5090862;28;20473;-70
2022/04/21 08:20:53;;;;;;;4.60;4.20;;;;;;;;;;5090200;28;20524;-71
2022/04/21 08:23:20;;;;;;;6.43;4.60;;;;;;;;;;5090883;28;20437;-72
2022/04/21 08:34:03;;;;;;;4.23;3.10;;;;;;;;;;5090908;28;20481;-70
2022/04/21 08:36:31;;;;;;;4.70;4.17;;;;;;;;;;5090134;28;20448;-70
2022/04/21 08:38:58;;;;;;;4.87;3.07;;;;;;;;;;5090220;28;20444;-72
2022/04/21 08:41:28;;;;;;;4.50;3.50;;;;;;;;;;5090788;28;20529;-71
2022/04/21 08:43:56;;;;;;;3.77;3.47;;;;;;;;;;5090191;28;20529;-72
2022/04/21 08:46:26;;;;;;;4.30;3.70;;;;;;;;;;5090979;28;20446;-72
2022/04/21 08:48:54;;;;;;;3.23;2.90;;;;;;;;;;5089991;28;20448;-71
2022/04/21 08:51:21;;;;;;;4.77;4.17;;;;;;;;;;5090300;28;20922;-72
2022/04/21 08:53:49;;;;;;;4.77;3.73;;;;;;;;;;5089937;28;20644;-71
2022/04/21 08:56:16;;;;;;;3.80;3.43;;;;;;;;;;5089975;28;21262;-71
2022/04/21 08:58:43;;;;;;;5.87;4.50;;;;;;;;;;5089309;28;20497;-71
2022/04/21 09:01:11;;;;;;;3.77;3.30;;;;;;;;;;5090816;28;20481;-72
2022/04/21 09:03:39;;;;;;;4.70;3.60;;;;;;;;;;5089827;28;20442;-71
2022/04/21 09:06:06;;;;;;;7.50;3.53;;;;;;;;;;5090641;28;20527;-71
2022/04/21 09:08:34;;;;;;;6.03;4.30;;;;;;;;;;5089439;28;20450;-71
2022/04/21 09:11:05;;;;;;;4.90;4.20;;;;;;;;;;5090243;28;20489;-71
2022/04/21 09:13:34;;;;;;;4.40;3.70;;;;;;;;;;5089528;28;20500;-71
2022/04/21 09:16:05;;;;;;;4.47;4.10;;;;;;;;;;5090440;28;20438;-72
2022/04/21 09:18:43;;;;;;;5.77;3.80;;;;;;;;;;5089343;28;20521;-71
2022/04/21 09:21:11;;;;;;;4.53;4.00;;;;;;;;;;5090400;28;20523;-71
2022/04/21 09:23:39;;;;;;;4.60;3.80;;;;;;;;;;5090209;28;20525;-71
2022/04/21 09:26:13;;;;;;;7.70;3.70;;;;;;;;;;5090755;28;20942;-71
2022/04/21 09:28:41;;;;;;;5.30;3.80;;;;;;;;;;5089625;28;20452;-71
2022/04/21 09:31:09;;;;;;;6.60;4.10;;;;;;;;;;5090267;28;20542;-71
2022/04/21 09:33:37;;;;;;;5.97;3.50;;;;;;;;;;5090260;28;20835;-72
2022/04/21 09:36:06;;;;;;;5.10;3.60;;;;;;;;;;5090814;28;20436;-71
2022/04/21 09:38:34;;;;;;;3.93;3.53;;;;;;;;;;5089840;28;20439;-71
2022/04/21 09:41:07;;;;;;;3.87;3.40;;;;;;;;;;5090253;28;20476;-72
2022/04/21 09:43:37;;;;;;;4.87;4.37;;;;;;;;;;5090387;28;20488;-71
2022/04/21 09:46:13;;;;;;;6.17;4.20;;;;;;;;;;5090505;28;20847;-71
2022/04/21 09:48:40;;;;;;;4.50;3.80;;;;;;;;;;5089558;28;20472;-72
2022/04/21 09:51:11;;;;;;;5.60;3.90;;;;;;;;;;5090528;28;20444;-71
2022/04/21 09:53:48;;;;;;;4.50;3.80;;;;;;;;;;5089741;28;20522;-72
2022/04/21 09:56:16;;;;;;;3.80;3.43;;;;;;;;;;5077380;28;20432;-71
2022/04/21 09:58:43;;;;;;;4.67;3.53;;;;;;;;;;5088892;28;20467;-72
2022/04/21 10:01:11;;;;;;;3.50;3.20;;;;;;;;;;5090039;28;20479;-71
2022/04/21 10:03:41;;;;;;;5.97;3.90;;;;;;;;;;5089342;28;20441;-71
2022/04/21 10:06:11;;;;;;;4.00;3.60;;;;;;;;;;5090587;28;20441;-72
2022/04/21 10:08:41;;;;;;;5.13;4.40;;;;;;;;;;5090229;28;20452;-73
2022/04/21 10:11:09;;;;;;;4.20;3.20;;;;;;;;;;5093883;28;20473;-72
2022/04/21 10:13:36;;;;;;;6.03;3.40;;;;;;;;;;5093089;28;20435;-71
2022/04/21 10:16:04;;;;;;;3.30;2.93;;;;;;;;;;5093601;28;20449;-72
2022/04/21 10:18:31;;;;;;;5.60;3.43;;;;;;;;;;5092743;28;20904;-71
2022/04/21 10:20:58;;;;;;;4.60;2.83;;;;;;;;;;5093438;28;20847;-72
2022/04/21 10:23:28;;;;;;;5.47;3.40;;;;;;;;;;5093472;28;20439;-72
2022/04/21 10:26:02;;;;;;;4.97;2.97;;;;;;;;;;5093824;28;20443;-71
2022/04/21 10:28:36;;;;;;;7.00;3.00;;;;;;;;;;5092226;28;20992;-72
2022/04/21 10:31:18;;;;;;;2.90;2.67;;;;;;;;;;5093848;28;20444;-71
2022/04/21 10:33:54;;;;;;;4.40;3.90;;;;;;;;;;5081261;28;20452;-71
2022/04/21 10:36:33;;;;;;;3.93;3.40;;;;;;;;;;5093832;28;20441;-72
2022/04/21 10:39:25;;;;;;;3.20;2.90;;;;;;;;;;5092921;28;20915;-72
2022/04/21 10:42:08;;;;;;;3.93;3.37;;;;;;;;;;5081740;28;20800;-72
2022/04/21 10:44:42;;;;;;;3.30;2.43;;;;;;;;;;5092266;28;20438;-71
2022/04/21 10:47:32;;;;;;;3.60;3.20;;;;;;;;;;5093421;28;20436;-71
2022/04/21 10:50:00;;;;;;;3.10;2.63;;;;;;;;;;5081248;28;20498;-71
2022/04/21 10:58:32;;;;;;;2.83;2.37;;;;;;;;;;5072124;28;20818;-71
2022/04/21 11:01:09;;;;;;;5.03;3.23;;;;;;;;;;5067179;28;20498;-71
2022/04/21 11:03:37;;;;;;;3.03;2.73;;;;;;;;;;5091659;28;20509;-71
2022/04/21 11:06:07;;;;;;;3.10;2.80;;;;;;;;;;5092697;28;20789;-72
2022/04/21 11:08:34;;;;;;;3.20;2.43;;;;;;;;;;5091918;28;20460;-71
2022/04/21 11:11:03;;;;;;;5.30;3.40;;;;;;;;;;5092670;28;20451;-72
2022/04/21 11:13:45;;;;;;;4.85;2.95;;;;;;;;;;5091650;28;20480;-71
2022/04/21 11:16:12;;;;;;;6.07;2.70;;;;;;;;;;5090199;28;20208;-71
2022/04/21 11:18:39;;;;;;;3.17;2.53;;;;;;;;;;5091179;28;20442;-71
2022/04/21 11:21:23;;;;;;;3.30;2.27;;;;;;;;;;5092536;28;20567;-72
2022/04/21 11:24:03;;;;;;;2.63;2.43;;;;;;;;;;5071312;28;20441;-72
2022/04/21 11:26:32;;;;;;;2.63;2.43;;;;;;;;;;5087453;28;20458;-70
2022/04/21 11:29:03;;;;;;;2.80;2.30;;;;;;;;;;5091691;28;20449;-73
2022/04/21 11:31:31;;;;;;;2.90;2.50;;;;;;;;;;5090925;28;20447;-71
2022/04/21 11:34:02;;;;;;;3.47;2.53;;;;;;;;;;5092001;28;20451;-71
2022/04/21 11:36:36;;;;;;;3.10;2.67;;;;;;;;;;5091535;28;20445;-72
2022/04/21 11:39:07;;;;;;;2.30;2.10;;;;;;;;;;5091602;28;20805;-72
2022/04/21 11:41:42;;;;;;;2.33;2.00;;;;;;;;;;5091096;28;20469;-71
2022/04/21 11:44:09;;;;;;;3.37;2.03;;;;;;;;;;5091635;28;20497;-72
2022/04/21 11:46:39;;;;;;;2.13;1.90;;;;;;;;;;5090945;28;20445;-71
2022/04/21 11:49:06;;;;;;;1.83;1.73;;;;;;;;;;5091575;28;20444;-72
2022/04/21 11:51:33;;;;;;;2.30;1.90;;;;;;;;;;5091362;28;20506;-71
2022/04/21 11:54:04;;;;;;;2.20;2.00;;;;;;;;;;5087304;28;20444;-71
2022/04/21 11:56:31;;;;;;;2.47;2.27;;;;;;;;;;5091114;28;20437;-71
2022/04/21 11:59:06;;;;;;;3.17;2.50;;;;;;;;;;5091332;28;20779;-71
2022/04/21 12:07:03;;;;;;;2.60;2.07;;;;;;;;;;5091514;28;20920;-71
2022/04/21 12:09:34;;;;;;;1.80;1.60;;;;;;;;;;5090393;28;20444;-71
2022/04/21 12:12:01;;;;;;;2.30;1.40;;;;;;;;;;5091501;28;20456;-72
2022/04/21 12:14:30;;;;;;;1.50;1.30;;;;;;;;;;5091046;28;20469;-72
2022/04/21 12:16:58;;;;;;;2.30;2.10;;;;;;;;;;5091282;28;20452;-71
2022/04/21 12:19:32;;;;;;;2.30;1.87;;;;;;;;;;5091231;28;20977;-72
2022/04/21 12:22:00;;;;;;;1.73;1.00;;;;;;;;;;5091814;28;20464;-73
2022/04/21 12:24:29;;;;;;;1.57;1.33;;;;;;;;;;5091030;28;20441;-71
2022/04/21 12:26:56;;;;;;;1.20;1.07;;;;;;;;;;5091257;28;20441;-72
2022/04/21 12:29:24;;;;;;;1.03;0.93;;;;;;;;;;5091195;28;20447;-71
2022/04/21 12:31:54;;;;;;;0.90;0.87;;;;;;;;;;5090628;28;20444;-71
2022/04/21 12:34:27;;;;;;;1.80;1.20;;;;;;;;;;5092206;28;20456;-71
2022/04/21 12:36:58;;;;;;;1.03;0.90;;;;;;;;;;5079960;28;20975;-71
2022/04/21 12:39:25;;;;;;;1.13;1.03;;;;;;;;;;5095666;28;20511;-70
2022/04/21 12:41:54;;;;;;;1.23;1.13;;;;;;;;;;5094769;28;20472;-71
2022/04/21 12:44:23;;;;;;;0.90;0.90;;;;;;;;;;5094529;28;20472;-70
2022/04/21 12:47:02;;;;;;;1.10;1.00;;;;;;;;;;5093709;28;20444;-71
2022/04/21 12:49:47;;;;;;;1.13;1.00;;;;;;;;;;5094637;28;20437;-70
2022/04/21 12:52:15;;;;;;;1.10;1.00;;;;;;;;;;5095100;28;20445;-71
2022/04/21 12:54:48;;;;;;;0.80;0.80;;;;;;;;;;5090301;28;20922;-71
2022/04/21 12:57:17;;;;;;;0.80;0.80;;;;;;;;;;5091133;28;20535;-72
2022/04/21 12:59:46;;;;;;;1.10;0.90;;;;;;;;;;5089714;28;20468;-72
2022/04/21 13:02:15;;;;;;;1.93;1.30;;;;;;;;;;5089692;28;20489;-72
2022/04/21 13:04:42;;;;;;;1.50;1.00;;;;;;;;;;5090108;28;20445;-71
2022/04/21 13:07:10;;;;;;;1.13;1.00;;;;;;;;;;5090304;28;20445;-72
2022/04/21 13:09:37;;;;;;;0.80;0.70;;;;;;;;;;5089267;28;20439;-73
2022/04/21 13:12:05;;;;;;;1.10;1.00;;;;;;;;;;5090638;28;20432;-72
2022/04/21 13:14:32;;;;;;;2.13;1.13;;;;;;;;;;5089887;28;20933;-72
2022/04/21 13:16:59;;;;;;;1.17;0.80;;;;;;;;;;5089999;28;20441;-72
2022/04/21 13:19:28;;;;;;;5.30;1.10;;;;;;;;;;5089815;28;20449;-71
2022/04/21 13:21:55;;;;;;;0.90;0.80;;;;;;;;;;5090579;28;20476;-71
2022/04/21 13:24:23;;;;;;;1.10;0.80;;;;;;;;;;5090699;28;20441;-71
2022/04/21 13:26:50;;;;;;;1.07;0.90;;;;;;;;;;5089972;28;20901;-71
2022/04/21 13:29:17;;;;;;;1.10;0.87;;;;;;;;;;5090378;28;20521;-71
2022/04/21 13:34:30;;;;;;;1.10;1.00;;;;;;;;;;5089904;28;20416;-71
2022/04/21 13:36:57;;;;;;;1.90;1.30;;;;;;;;;;5090500;28;20440;-71
2022/04/21 13:39:25;;;;;;;1.10;1.00;;;;;;;;;;5090310;28;20440;-71
2022/04/21 13:41:52;;;;;;;1.60;1.30;;;;;;;;;;5090618;28;20479;-71
2022/04/21 13:44:19;;;;;;;3.50;1.17;;;;;;;;;;5094517;28;20836;-71
2022/04/21 13:46:46;;;;;;;1.47;1.37;;;;;;;;;;5093764;28;20921;-72
2022/04/21 13:49:14;;;;;;;1.27;1.03;;;;;;;;;;5093777;28;20913;-71
2022/04/21 13:51:42;;;;;;;1.77;1.37;;;;;;;;;;5093303;28;20436;-71
2022/04/21 13:54:13;;;;;;;2.33;1.50;;;;;;;;;;5093697;28;20468;-71
2022/04/21 13:56:40;;;;;;;2.20;1.30;;;;;;;;;;5092893;28;20902;-73
2022/04/21 13:59:10;;;;;;;1.47;1.30;;;;;;;;;;5093027;28;20507;-71
2022/04/21 14:01:37;;;;;;;1.43;1.33;;;;;;;;;;5092487;28;20436;-71
2022/04/21 14:04:04;;;;;;;1.73;1.10;;;;;;;;;;5093925;28;20442;-72
2022/04/21 14:06:32;;;;;;;1.23;1.13;;;;;;;;;;5093082;28;20441;-71
2022/04/21 14:09:00;;;;;;;1.23;1.13;;;;;;;;;;5093029;28;20443;-72
2022/04/21 14:11:27;;;;;;;1.37;1.10;;;;;;;;;;5093589;28;20790;-72
2022/04/21 14:13:55;;;;;;;5.33;1.40;;;;;;;;;;5093303;28;20531;-72
2022/04/21 14:16:22;;;;;;;1.50;1.10;;;;;;;;;;5093424;28;20451;-72
2022/04/21 14:18:49;;;;;;;2.30;1.23;;;;;;;;;;5092547;28;20447;-72
2022/04/21 14:21:19;;;;;;;1.40;1.10;;;;;;;;;;5093603;28;20480;-71
2022/04/21 14:23:46;;;;;;;1.60;1.50;;;;;;;;;;5079275;28;20484;-71
2022/04/21 14:26:15;;;;;;;1.67;1.47;;;;;;;;;;5093454;28;20441;-73
2022/04/21 14:28:43;;;;;;;1.77;1.57;;;;;;;;;;5092378;28;20445;-72
2022/04/21 14:31:11;;;;;;;1.77;1.40;;;;;;;;;;5093243;28;20523;-71
2022/04/21 14:33:38;;;;;;;1.50;1.40;;;;;;;;;;5092861;28;20526;-71
2022/04/21 14:36:06;;;;;;;1.43;1.17;;;;;;;;;;5093242;28;20791;-72
2022/04/21 14:44:11;;;;;;;1.50;1.40;;;;;;;;;;5092982;28;20522;-71
2022/04/21 14:46:39;;;;;;;1.17;1.07;;;;;;;;;;5091982;28;20917;-72
2022/04/21 14:49:07;;;;;;;2.37;1.10;;;;;;;;;;5092318;28;20949;-72
2022/04/21 14:51:34;;;;;;;1.20;1.07;;;;;;;;;;5091981;28;20502;-72
2022/04/21 14:54:02;;;;;;;1.53;1.30;;;;;;;;;;5092155;28;20801;-72
2022/04/21 14:56:31;;;;;;;1.60;1.10;;;;;;;;;;5092397;28;20449;-72
2022/04/21 14:58:59;;;;;;;2.97;1.50;;;;;;;;;;5091988;28;20481;-72
2022/04/21 15:01:26;;;;;;;1.30;1.20;;;;;;;;;;5092355;28;20468;-72
2022/04/21 15:03:53;;;;;;;1.90;1.30;;;;;;;;;;5092192;28;20488;-72
2022/04/21 15:06:20;;;;;;;2.30;1.63;;;;;;;;;;5093023;28;20441;-72
2022/04/21 15:08:48;;;;;;;1.40;1.27;;;;;;;;;;5091943;28;20629;-71
2022/04/21 15:11:15;;;;;;;2.30;1.50;;;;;;;;;;5092734;28;20433;-70
2022/04/21 15:13:43;;;;;;;1.50;1.40;;;;;;;;;;5092359;28;20523;-73
2022/04/21 15:16:11;;;;;;;1.50;1.20;;;;;;;;;;5092436;28;20520;-72
2022/04/21 15:18:37;;;;;;;2.07;1.40;;;9.80;1.00;;;;;;5091950;28;20440;-72
2022/04/21 15:21:05;;;;;;;1.07;0.97;;;;;;;;;;5092942;28;20441;-72
2022/04/21 15:23:32;;;;;;;1.20;1.10;;;;;;;;;;5092122;28;20562;-70
2022/04/21 15:26:00;;;;;;;1.67;1.20;;;;;;;;;;5092723;28;20441;-70
2022/04/21 15:28:28;;;;;;;1.10;1.00;;;22.10;1.00;;;;;;5091787;28;20763;-72
2022/04/21 15:30:57;;;;;;;2.20;1.33;;;19.90;1.00;;;;;;5092313;28;20441;-72
2022/04/21 15:33:25;;;;;;;1.67;1.10;;;;;;;;;;5092800;28;20490;-71
2022/04/21 15:35:53;;;;;;;2.10;1.10;;;;;;;;;;5092712;28;20469;-71
2022/04/21 15:38:20;;;;;;;2.20;1.40;;;;;;;;;;5091964;28;20478;-72
2022/04/21 15:40:47;;;;;;;1.43;1.07;;;;;;;;;;5091644;28;21003;-71
2022/04/21 15:43:15;;;;;;;1.23;1.13;;;;;;;;;;5092017;28;20479;-71
2022/04/21 15:45:43;;;;;;;1.20;1.10;;;20.00;1.00;;;;;;5091733;28;20441;-71